Hickory Grove, Louisiana
Current Conditions -  °F | °C
As of 5:53 AM on Monday 24 Nov 2014 (Local Time) from KESF Reporting Station
Clear Clear  
Wind Chill: 52°   Ceiling: Unl
Heat Index: 52°   Visibility: 10mi
Dew Point: 43°   Wind: 9mph
Humidity: 71%   Direction: 300°WNW
Pressure: 29.84"   Gusts: 20mph
Location:  31.3606°N, 92.2142°W
Report Text: KESF 241153Z AUTO 30008G17KT 260V350 10SM CLR 11/06 A2984 RMK AO2 SLP104 70007 T01110061 10172 20111 53033
Loading
Personal Weather Stations






























Interactive Weather Map New forecast layout! Learn more

10-Day Weather Forecast

Advertisements
Track Severe Weather on mobile